الصفحة الرئيسية
METAR-TAF:

METAR-TAF

مطار :

مطار شيريميتييفو الدولي

موسكو-شيريميتييفو, روسيا

دائرة عرض: 55-58N, خط طول: 037-25E, ارتفاع: 190 متر

مراقبة الطقس الحالي

تاريخ ووقت الإصدار 11 دقيقة قبل الساعة 01:00UTC
ريح 4 عقدة من الشمال
درجة الحرارة 11°درجة مئوية
الرطوبة 100%
ضغط 1023 hPa
الرؤية 10 كم أو أكثر
الغيوم لا تقل 1500 م ولا وجود لمزنة ركامية السحاب الأسود

METAR: UUEE 170100Z 36002MPS CAVOK 11/11 Q1023 R06R/CLRD62 NOSIG

زمن: 04:11 (01:11 UTC)

توقعات

تاريخ ووقت الإصدار 2ساعات و 14 دقيقة قبل الساعة 22:57UTC
التوقعات صالحة من17 الساعة 00 UTC إلى 17 الساعة 24 UTC
ريح 6 عقدة من الشمال/الشمال الشرقي
الرؤية 10 كم أو أكثر
غيوم متفرقة على ارتفاع 3000 قدم
مؤقت
من 17 الساعة 00 UTC إلى 17 الساعة 05 UTC
الرؤية: 0500 متر
غيوم قليلة على ارتفاع 500 قدم
ضباب

TAF: UUEE 162257Z 1700/1724 02003MPS 9999 SCT030 TX22/1712Z TN12/1703Z TEMPO 1700/1705 0500 FG FEW005

أرصاد الطقس والتوقعات من أكثر من 4000 مطار (تقارير الطقس للمطار METAR والتنبؤ بالطقس بالمطارTAF).

المحطات المتاحة هي النقط الصفراء والحمراء على الخريطة.

حرك المؤشر فوق النقطة لمعرفة اسم المحطة.

ثم انقر لمعرفة أرصاد وتوقعات الطقس.

لتغيير الخارطة: اضغط على الأزرار الخضراء مع رمز الصليب الأسود للتكبير. على الزر الأخضر مع شرطة للتصغير، أو على الأسهم الخضراء للخرائط المجاورة.


METAR-TAF: